Time;durP1;ratioP1;P1;durP2;ratioP2;P2;SDS_P1;SDS_P2;PMS_P1;PMS_P2;Temp;Humidity;BMP_temperature;BMP_pressure;BME280_temperature;BME280_humidity;BME280_pressure;Samples;Min_cycle;Max_cycle;Signal;HPM_P1;HPM_P2
2021/04/12 00:00:30;;;;;;;4.60;1.90;;;11.40;72.90;;;;;;4799006;29;20047;-76
2021/04/12 00:03:16;;;;;;;4.95;2.28;;;11.40;72.70;;;;;;4786543;29;20063;-76
2021/04/12 00:06:06;;;;;;;4.40;1.90;;;11.40;72.70;;;;;;4769504;29;20071;-76
2021/04/12 00:08:38;;;;;;;6.40;2.20;;;11.30;73.10;;;;;;4789301;29;20404;-76
2021/04/12 00:11:28;;;;;;;5.32;2.28;;;11.30;72.70;;;;;;4784753;29;20157;-76
2021/04/12 00:14:01;;;;;;;3.10;1.60;;;11.30;72.70;;;;;;4802947;29;20054;-76
2021/04/12 00:16:34;;;;;;;3.90;1.65;;;11.30;72.70;;;;;;4776724;29;20058;-76
2021/04/12 00:19:21;;;;;;;5.30;1.90;;;11.40;72.30;;;;;;4781962;29;20066;-76
2021/04/12 00:22:09;;;;;;;10.52;2.35;;;11.40;72.30;;;;;;4793538;29;20059;-76
2021/04/12 00:24:46;;;;;;;5.82;2.00;;;11.40;72.20;;;;;;4781551;29;20062;-75
2021/04/12 00:27:40;;;;;;;5.20;1.92;;;11.40;72.10;;;;;;4788971;29;20050;-76
2021/04/12 00:30:18;;;;;;;5.32;2.17;;;11.40;72.40;;;;;;4781945;29;20055;-76
2021/04/12 00:32:52;;;;;;;7.57;2.20;;;11.50;71.50;;;;;;4772702;30;20427;-76
2021/04/12 00:35:40;;;;;;;5.72;2.00;;;11.40;71.70;;;;;;4792720;29;20061;-76
2021/04/12 00:38:28;;;;;;;5.10;1.98;;;11.40;72.00;;;;;;4779521;29;20053;-76
2021/04/12 00:41:39;;;;;;;4.75;2.22;;;11.40;72.00;;;;;;4789781;29;20061;-76
2021/04/12 00:44:29;;;;;;;4.43;1.98;;;11.50;71.70;;;;;;4750607;30;20533;-76
2021/04/12 00:47:16;;;;;;;5.20;2.22;;;11.50;71.50;;;;;;4749988;30;20150;-76
2021/04/12 00:49:51;;;;;;;5.88;2.20;;;11.60;71.30;;;;;;4652163;30;20050;-76
2021/04/12 00:52:42;;;;;;;4.80;2.20;;;11.60;71.10;;;;;;4666636;30;20081;-76
2021/04/12 00:55:21;;;;;;;5.22;2.15;;;11.50;71.10;;;;;;4665330;30;20135;-76
2021/04/12 00:57:47;;;;;;;4.45;2.20;;;11.60;70.90;;;;;;4650719;30;20054;-76
2021/04/12 01:00:23;;;;;;;3.75;1.73;;;11.60;70.70;;;;;;4640437;30;20098;-76
2021/04/12 01:02:59;;;;;;;3.75;1.70;;;11.60;70.90;;;;;;4667197;30;20077;-76
2021/04/12 01:05:35;;;;;;;4.95;2.15;;;11.60;71.00;;;;;;4649361;30;20536;-76
2021/04/12 01:08:13;;;;;;;6.72;2.40;;;11.50;71.10;;;;;;4666480;30;20498;-75
2021/04/12 01:11:07;;;;;;;7.10;1.88;;;11.50;71.10;;;;;;4666148;30;20420;-76
2021/04/12 01:13:58;;;;;;;5.18;1.85;;;11.60;70.90;;;;;;4666262;30;20515;-76
2021/04/12 01:16:56;;;;;;;4.45;2.05;;;11.60;70.90;;;;;;4666347;30;20453;-76
2021/04/12 01:20:01;;;;;;;6.45;2.45;;;11.60;70.90;;;;;;4673732;30;20092;-76
2021/04/12 01:22:58;;;;;;;6.78;1.60;;;11.60;70.90;;;;;;4716026;30;20049;-76
2021/04/12 01:25:27;;;;;;;4.93;2.15;;;11.60;70.80;;;;;;4717139;30;20056;-76
2021/04/12 01:28:22;;;;;;;4.40;2.10;;;11.60;70.90;;;;;;4787881;29;20407;-76
2021/04/12 01:31:26;;;;;;;5.88;1.70;;;11.60;70.80;;;;;;4781829;29;20047;-76
2021/04/12 01:34:11;;;;;;;4.07;1.77;;;11.50;71.10;;;;;;4787722;30;20137;-76
2021/04/12 01:37:02;;;;;;;4.93;2.00;;;11.50;71.10;;;;;;4783584;30;20047;-76
2021/04/12 01:39:47;;;;;;;3.97;1.75;;;11.50;71.40;;;;;;4792732;29;20685;-76
2021/04/12 01:42:45;;;;;;;7.93;2.03;;;11.50;71.70;;;;;;4782414;30;20664;-76
2021/04/12 01:45:56;;;;;;;4.68;2.05;;;11.40;71.40;;;;;;4777595;30;20051;-76
2021/04/12 01:48:54;;;;;;;6.07;1.67;;;11.40;71.30;;;;;;4782914;30;20063;-76
2021/04/12 01:51:23;;;;;;;7.40;1.85;;;11.50;71.30;;;;;;4785850;30;20492;-76
2021/04/12 01:54:37;;;;;;;4.40;2.08;;;11.40;71.30;;;;;;4776016;29;20122;-76
2021/04/12 01:57:36;;;;;;;3.90;1.95;;;11.40;71.50;;;;;;4779207;30;20052;-76
2021/04/12 02:00:28;;;;;;;4.93;2.22;;;11.30;71.90;;;;;;4778365;30;20447;-76
2021/04/12 02:03:19;;;;;;;4.07;1.80;;;11.10;72.90;;;;;;4785523;30;20047;-76
2021/04/12 02:06:01;;;;;;;4.63;1.83;;;11.10;72.60;;;;;;4763316;30;20062;-76
2021/04/12 02:08:45;;;;;;;5.60;2.17;;;11.10;72.40;;;;;;4776110;30;20058;-76
2021/04/12 02:11:33;;;;;;;5.18;2.40;;;11.10;72.60;;;;;;4785300;30;20096;-76
2021/04/12 02:14:35;;;;;;;10.30;2.70;;;11.00;72.90;;;;;;4785044;29;20046;-76
2021/04/12 02:17:26;;;;;;;7.80;2.37;;;10.90;73.00;;;;;;4785888;29;20050;-76
2021/04/12 02:20:07;;;;;;;5.35;2.13;;;10.90;73.00;;;;;;4786215;29;20139;-76
2021/04/12 02:23:02;;;;;;;4.88;2.10;;;10.90;73.30;;;;;;4798119;29;20400;-76
2021/04/12 02:25:54;;;;;;;8.23;2.45;;;10.90;73.40;;;;;;4785702;29;20503;-76
2021/04/12 02:28:50;;;;;;;6.07;2.45;;;10.90;73.30;;;;;;4786039;29;20800;-76
2021/04/12 02:31:32;;;;;;;8.45;2.75;;;11.00;73.20;;;;;;4780550;29;20060;-76
2021/04/12 02:34:04;;;;;;;6.15;2.53;;;11.00;73.10;;;;;;4762516;30;20065;-76
2021/04/12 02:36:52;;;;;;;4.60;2.05;;;10.90;73.40;;;;;;4771178;30;20054;-76
2021/04/12 02:39:37;;;;;;;8.98;3.03;;;10.80;73.70;;;;;;4784898;29;20044;-76
2021/04/12 02:42:41;;;;;;;6.60;2.63;;;10.70;73.80;;;;;;4778756;30;20052;-76
2021/04/12 02:45:20;;;;;;;5.55;2.55;;;10.80;73.60;;;;;;4766134;30;20059;-75
2021/04/12 02:48:05;;;;;;;6.63;2.50;;;10.90;73.60;;;;;;4795058;29;20066;-76
2021/04/12 02:50:59;;;;;;;5.47;2.42;;;10.90;73.30;;;;;;4805462;29;20062;-76
2021/04/12 02:53:44;;;;;;;7.10;2.83;;;10.90;73.30;;;;;;4780489;29;20615;-75
2021/04/12 02:56:19;;;;;;;13.55;3.55;;;11.00;73.20;;;;;;4791645;29;20057;-75
2021/04/12 02:58:58;;;;;;;8.38;3.05;;;11.00;73.30;;;;;;4785601;30;20062;-75
2021/04/12 03:01:48;;;;;;;6.70;2.53;;;11.00;73.50;;;;;;4803542;29;20526;-76
2021/04/12 03:04:27;;;;;;;6.13;3.20;;;10.80;74.20;;;;;;4790538;29;20511;-75
2021/04/12 03:07:34;;;;;;;8.18;3.00;;;10.80;74.40;;;;;;4766988;29;20070;-75
2021/04/12 03:10:11;;;;;;;8.30;3.35;;;10.80;74.70;;;;;;4796435;29;20061;-75
2021/04/12 03:12:48;;;;;;;5.10;2.60;;;10.80;74.80;;;;;;4783776;29;20132;-75
2021/04/12 03:15:36;;;;;;;8.70;3.08;;;10.80;74.80;;;;;;4797167;29;20607;-76
2021/04/12 03:18:22;;;;;;;7.45;3.17;;;10.70;75.00;;;;;;4780962;29;20570;-75
2021/04/12 03:21:11;;;;;;;8.90;3.35;;;10.70;75.30;;;;;;4789821;29;20804;-75
2021/04/12 03:24:05;;;;;;;8.15;3.20;;;10.60;75.70;;;;;;4764675;30;20063;-75
2021/04/12 03:26:50;;;;;;;7.28;3.35;;;10.50;76.00;;;;;;4720865;30;20056;-75
2021/04/12 03:29:28;;;;;;;7.25;2.90;;;10.40;76.40;;;;;;4752224;30;20074;-76
2021/04/12 03:32:12;;;;;;;8.02;2.60;;;10.40;76.40;;;;;;4736108;30;20059;-75
2021/04/12 03:35:18;;;;;;;7.93;4.07;;;10.40;76.60;;;;;;4751837;30;20048;-75
2021/04/12 03:38:08;;;;;;;8.38;2.90;;;10.30;76.60;;;;;;4735509;30;20525;-75
2021/04/12 03:40:41;;;;;;;7.18;2.80;;;10.20;77.10;;;;;;4752858;30;20063;-75
2021/04/12 03:43:28;;;;;;;9.73;3.42;;;10.10;77.20;;;;;;4726365;30;20505;-75
2021/04/12 03:46:12;;;;;;;10.98;3.00;;;9.90;78.10;;;;;;4752702;30;20556;-75
2021/04/12 03:48:50;;;;;;;9.10;3.92;;;9.90;78.20;;;;;;4752212;30;20123;-75
2021/04/12 03:51:17;;;;;;;6.03;2.85;;;9.80;78.50;;;;;;4723240;30;20056;-75
2021/04/12 03:54:17;;;;;;;9.70;3.65;;;9.70;80.30;;;;;;4746225;30;20068;-75
2021/04/12 03:56:58;;;;;;;8.55;3.50;;;9.80;79.70;;;;;;4752050;30;20048;-75
2021/04/12 03:59:37;;;;;;;6.13;3.78;;;9.50;80.10;;;;;;4749169;30;20049;-75
2021/04/12 04:02:24;;;;;;;7.70;3.55;;;9.60;80.10;;;;;;4773279;29;20515;-75
2021/04/12 04:05:19;;;;;;;8.93;3.67;;;9.80;79.60;;;;;;4788011;30;20425;-75
2021/04/12 04:08:12;;;;;;;8.45;3.92;;;9.90;79.10;;;;;;4788628;29;20062;-75
2021/04/12 04:10:45;;;;;;;;;;;10.10;78.60;;;;;;4777676;29;20062;-76
2021/04/12 04:13:32;;;;;;;9.23;3.88;;;10.10;78.50;;;;;;4788798;29;19932;-75
2021/04/12 04:16:18;;;;;;;9.15;4.47;;;10.10;78.60;;;;;;4790789;29;20476;-75
2021/04/12 04:19:10;;;;;;;14.27;4.47;;;10.20;78.50;;;;;;4790311;29;20503;-75
2021/04/12 04:21:39;;;;;;;8.73;4.13;;;10.30;78.30;;;;;;4791779;29;20051;-75
2021/04/12 04:24:27;;;;;;;9.18;4.07;;;10.40;77.90;;;;;;4785830;30;20055;-75
2021/04/12 04:27:28;;;;;;;12.70;4.88;;;10.40;77.60;;;;;;4787288;30;20412;-75
2021/04/12 04:30:19;;;;;;;10.63;4.97;;;10.50;77.70;;;;;;4781074;29;20077;-75
2021/04/12 04:33:19;;;;;;;11.48;4.80;;;10.50;77.60;;;;;;4791957;29;20054;-76
2021/04/12 04:35:57;;;;;;;10.07;4.88;;;10.50;77.60;;;;;;4790106;29;20055;-75
2021/04/12 04:38:48;;;;;;;12.55;5.15;;;10.60;77.60;;;;;;4791337;29;20061;-76
2021/04/12 04:41:55;;;;;;;10.10;5.00;;;10.60;77.70;;;;;;4804023;29;20054;-75
2021/04/12 04:44:59;;;;;;;10.48;5.07;;;10.60;77.70;;;;;;4768582;30;20051;-75
2021/04/12 04:47:39;;;;;;;11.75;4.97;;;10.70;77.80;;;;;;4770885;30;20063;-75
2021/04/12 04:50:28;;;;;;;17.48;5.15;;;10.70;77.40;;;;;;4753302;30;20073;-75
2021/04/12 04:53:31;;;;;;;13.45;4.80;;;10.80;77.10;;;;;;4754113;30;20059;-75
2021/04/12 04:56:25;;;;;;;16.20;5.10;;;10.90;76.90;;;;;;4769636;30;20054;-75
2021/04/12 04:59:10;;;;;;;14.07;5.07;;;10.90;77.00;;;;;;4768392;30;20060;-75
2021/04/12 05:01:45;;;;;;;10.63;4.72;;;10.90;77.00;;;;;;4774100;30;20048;-75
2021/04/12 05:04:44;;;;;;;13.52;4.78;;;11.00;76.80;;;;;;4760806;30;20055;-75
2021/04/12 05:07:51;;;;;;;11.60;4.40;;;11.10;76.50;;;;;;4763946;30;20059;-75
2021/04/12 05:11:02;;;;;;;13.43;4.35;;;11.20;76.20;;;;;;4703801;30;20529;-75
2021/04/12 05:14:02;;;;;;;13.05;5.53;;;11.20;76.00;;;;;;4646673;30;20076;-75
2021/04/12 05:16:51;;;;;;;12.50;4.50;;;11.30;75.70;;;;;;4646031;30;20089;-75
2021/04/12 05:19:55;;;;;;;11.20;4.80;;;11.40;75.30;;;;;;4628895;30;20137;-75
2021/04/12 05:22:40;;;;;;;;;;;11.40;75.60;;;;;;4650520;30;20180;-75
2021/04/12 05:25:28;;;;;;;9.25;4.07;;;11.50;75.30;;;;;;4664091;30;19928;-75
2021/04/12 05:28:20;;;;;;;10.25;4.80;;;11.60;75.10;;;;;;4650042;30;20521;-75
2021/04/12 05:31:17;;;;;;;12.65;4.88;;;11.60;75.10;;;;;;4662995;30;20072;-75
2021/04/12 05:33:46;;;;;;;11.75;4.47;;;11.60;74.80;;;;;;4662637;30;20083;-75
2021/04/12 05:36:31;;;;;;;11.48;4.63;;;11.70;74.70;;;;;;4664183;30;20057;-75
2021/04/12 05:39:25;;;;;;;10.45;4.70;;;11.70;74.70;;;;;;4658524;30;20162;-75
2021/04/12 05:42:10;;;;;;;10.32;4.75;;;11.70;74.40;;;;;;4662419;30;20743;-75
2021/04/12 05:44:41;;;;;;;8.30;4.35;;;11.70;74.20;;;;;;4662771;30;20054;-75
2021/04/12 05:47:41;;;;;;;11.63;4.28;;;11.70;74.70;;;;;;4685187;30;20060;-75
2021/04/12 05:50:45;;;;;;;10.52;5.43;;;11.70;74.90;;;;;;4747167;29;20116;-75
2021/04/12 05:53:45;;;;;;;12.25;4.63;;;11.70;74.60;;;;;;4801449;29;20519;-75
2021/04/12 05:56:53;;;;;;;9.98;4.60;;;11.80;74.80;;;;;;4787683;29;20051;-75
2021/04/12 05:59:42;;;;;;;12.70;4.90;;;11.90;74.70;;;;;;4776606;29;20069;-75
2021/04/12 06:02:22;;;;;;;11.88;5.75;;;11.90;74.80;;;;;;4780794;29;20153;-75
2021/04/12 06:05:26;;;;;;;12.60;4.68;;;12.00;75.50;;;;;;4805010;29;20066;-73
2021/04/12 06:08:32;;;;;;;12.02;4.72;;;12.10;74.30;;;;;;4772981;29;20067;-73
2021/04/12 06:11:27;;;;;;;11.85;4.22;;;12.40;73.70;;;;;;4801879;29;20049;-73
2021/04/12 06:14:31;;;;;;;13.90;4.65;;;12.50;73.40;;;;;;4787538;29;20103;-73
2021/04/12 06:17:31;;;;;;;7.63;4.00;;;12.60;72.70;;;;;;4786876;29;20058;-73
2021/04/12 06:20:31;;;;;;;10.10;4.45;;;12.70;72.50;;;;;;4798675;29;20076;-73
2021/04/12 06:23:38;;;;;;;8.90;4.35;;;12.70;72.10;;;;;;4786616;29;20043;-73
2021/04/12 06:26:43;;;;;;;11.13;4.07;;;12.80;72.30;;;;;;4772867;29;20074;-73
2021/04/12 06:29:15;;;;;;;13.55;4.82;;;12.90;71.90;;;;;;4789718;29;20122;-73
2021/04/12 06:32:19;;;;;;;10.85;4.30;;;13.00;71.50;;;;;;4791934;29;20438;-73
2021/04/12 06:34:58;;;;;;;10.50;4.50;;;13.10;71.60;;;;;;4789188;29;20050;-73
2021/04/12 06:37:33;;;;;;;9.45;4.05;;;13.20;71.20;;;;;;4784385;29;20060;-73
2021/04/12 06:40:18;;;;;;;10.95;3.92;;;13.30;70.80;;;;;;4779433;29;20138;-73
2021/04/12 06:43:19;;;;;;;12.68;4.70;;;13.30;70.20;;;;;;4782151;29;20130;-73
2021/04/12 06:46:26;;;;;;;13.80;4.20;;;13.50;69.70;;;;;;4803976;29;20047;-74
2021/04/12 06:49:15;;;;;;;11.50;3.83;;;13.60;69.30;;;;;;4783817;29;20052;-73
2021/04/12 06:52:05;;;;;;;10.48;3.83;;;13.70;68.80;;;;;;4802578;29;20057;-73
2021/04/12 06:55:10;;;;;;;7.28;3.35;;;13.90;68.60;;;;;;4808206;29;20047;-73
2021/04/12 06:57:45;;;;;;;8.25;3.80;;;14.00;68.50;;;;;;4782631;29;20051;-73
2021/04/12 07:00:33;;;;;;;9.75;3.50;;;14.20;68.20;;;;;;4788967;29;20060;-73
2021/04/12 07:03:34;;;;;;;7.97;2.38;;;14.40;67.20;;;;;;4786725;29;20070;-73
2021/04/12 07:06:28;;;;;;;5.03;1.48;;;14.50;64.90;;;;;;4798248;29;20103;-73
2021/04/12 07:09:10;;;;;;;5.72;1.83;;;14.70;62.80;;;;;;4793618;29;20394;-73
2021/04/12 07:12:04;;;;;;;5.70;1.90;;;14.90;62.40;;;;;;4769124;29;20133;-73
2021/04/12 07:14:49;;;;;;;5.60;2.00;;;14.90;62.60;;;;;;4793026;29;20051;-74
2021/04/12 07:17:46;;;;;;;7.22;2.22;;;14.90;63.20;;;;;;4786071;29;20039;-73
2021/04/12 07:29:12;;;;;;;8.48;3.50;;;14.70;64.20;;;;;;4800851;29;20041;-73
2021/04/12 07:32:01;;;;;;;10.35;3.28;;;14.70;65.10;;;;;;4799664;29;20066;-73
2021/04/12 07:34:59;;;;;;;7.57;3.30;;;14.80;65.60;;;;;;4787816;29;20070;-73
2021/04/12 07:37:38;;;;;;;8.15;3.30;;;14.80;65.70;;;;;;4801242;29;20074;-73
2021/04/12 07:40:29;;;;;;;8.32;3.33;;;14.90;65.90;;;;;;4791758;29;20048;-73
2021/04/12 07:43:17;;;;;;;9.00;2.20;;;15.00;66.00;;;;;;4771684;29;20055;-73
2021/04/12 07:45:51;;;;;;;5.22;2.45;;;15.10;65.60;;;;;;4786529;29;20063;-73
2021/04/12 07:48:38;;;;;;;10.10;3.10;;;15.10;65.20;;;;;;4798988;29;20053;-73
2021/04/12 07:51:43;;;;;;;4.20;1.55;;;15.20;64.90;;;;;;4792548;29;20507;-73
2021/04/12 07:54:45;;;;;;;6.38;1.20;;;15.40;62.70;;;;;;4713681;30;20059;-73
2021/04/12 07:57:40;;;;;;;3.58;1.33;;;15.60;62.60;;;;;;4710825;30;20490;-74
2021/04/12 08:00:33;;;;;;;8.10;1.33;;;15.80;62.20;;;;;;4679523;30;20062;-73
2021/04/12 08:03:03;;;;;;;4.15;1.05;;;15.90;60.70;;;;;;4668899;30;20050;-74
2021/04/12 08:05:58;;;;;;;5.43;1.23;;;15.90;60.50;;;;;;4681494;30;20066;-73
2021/04/12 08:08:56;;;;;;;5.30;1.70;;;16.00;61.00;;;;;;4680484;30;20517;-73
2021/04/12 08:11:46;;;;;;;4.07;1.13;;;16.10;60.80;;;;;;4668839;30;20057;-73
2021/04/12 08:14:48;;;;;;;6.82;1.60;;;16.20;60.70;;;;;;4671718;30;20065;-73
2021/04/12 08:17:40;;;;;;;7.03;1.23;;;16.40;60.80;;;;;;4680399;30;20061;-73
2021/04/12 08:20:44;;;;;;;8.18;2.22;;;16.60;60.00;;;;;;4658423;30;20064;-73
2021/04/12 08:23:31;;;;;;;3.83;1.33;;;16.70;59.60;;;;;;4677854;30;20062;-73
2021/04/12 08:26:42;;;;;;;5.95;1.40;;;16.90;59.00;;;;;;4676573;30;20058;-73
2021/04/12 08:29:46;;;;;;;7.75;2.78;;;17.00;59.20;;;;;;4594199;31;20115;-73
2021/04/12 08:32:50;;;;;;;5.90;1.10;;;17.00;59.50;;;;;;4588502;31;20059;-73
2021/04/12 08:35:25;;;;;;;3.95;1.35;;;16.90;58.90;;;;;;4607623;31;20146;-73
2021/04/12 08:38:23;;;;;;;5.00;1.30;;;16.80;58.70;;;;;;4686696;30;20064;-73
2021/04/12 08:41:31;;;;;;;7.82;1.80;;;16.70;59.10;;;;;;4677919;30;20601;-73
2021/04/12 08:44:09;;;;;;;4.20;1.60;;;16.70;58.80;;;;;;4674900;30;20471;-73
2021/04/12 08:46:45;;;;;;;3.80;1.25;;;16.70;58.40;;;;;;4677535;30;20174;-73
2021/04/12 08:49:14;;;;;;;2.70;1.15;;;16.70;58.70;;;;;;4657609;30;20081;-72
2021/04/12 08:51:54;;;;;;;7.57;1.52;;;16.70;58.80;;;;;;4647173;30;20058;-73
2021/04/12 08:54:29;;;;;;;4.75;1.38;;;16.60;58.50;;;;;;4664630;30;20978;-73
2021/04/12 08:57:29;;;;;;;3.78;1.27;;;16.60;58.50;;;;;;4677135;30;20125;-73
2021/04/12 09:00:14;;;;;;;2.45;0.90;;;16.50;58.90;;;;;;4660587;30;20830;-73
2021/04/12 09:03:09;;;;;;;10.82;1.60;;;16.50;58.80;;;;;;4675710;30;20061;-73
2021/04/12 09:05:54;;;;;;;4.63;0.98;;;16.50;58.90;;;;;;4649385;30;20072;-73
2021/04/12 09:08:48;;;;;;;5.53;1.60;;;16.60;59.20;;;;;;4689209;30;20054;-73
2021/04/12 09:11:33;;;;;;;5.43;1.45;;;16.70;59.70;;;;;;4678390;30;20216;-73
2021/04/12 09:14:29;;;;;;;4.32;1.42;;;16.80;59.20;;;;;;4673456;30;20677;-73
2021/04/12 09:17:16;;;;;;;7.13;1.88;;;16.80;59.30;;;;;;4695579;30;20083;-73
2021/04/12 09:20:17;;;;;;;5.57;2.10;;;16.80;59.30;;;;;;4679683;30;20077;-73
2021/04/12 09:23:04;;;;;;;8.77;1.67;;;16.90;59.40;;;;;;4691180;30;20063;-73
2021/04/12 09:26:05;;;;;;;5.57;2.00;;;17.00;59.60;;;;;;4705885;30;20139;-73
2021/04/12 09:29:02;;;;;;;7.20;2.05;;;17.00;59.50;;;;;;4690785;30;20057;-73
2021/04/12 09:32:06;;;;;;;4.30;1.00;;;17.10;59.60;;;;;;4691324;30;20057;-73
2021/04/12 09:34:57;;;;;;;3.83;1.10;;;17.20;59.60;;;;;;4704067;30;20061;-73
2021/04/12 09:38:01;;;;;;;6.47;1.00;;;17.40;60.00;;;;;;4688803;30;20179;-73
2021/04/12 09:40:58;;;;;;;4.55;1.33;;;17.80;58.80;;;;;;4709304;30;20729;-73
2021/04/12 09:44:00;;;;;;;4.05;0.90;;;18.00;57.90;;;;;;4754464;29;20059;-74
2021/04/12 09:46:38;;;;;;;4.55;1.08;;;18.10;57.80;;;;;;4765635;30;20059;-74
2021/04/12 09:49:55;;;;;;;4.03;0.70;;;18.00;58.20;;;;;;4777837;29;20066;-73
2021/04/12 09:52:56;;;;;;;2.85;0.75;;;17.90;58.20;;;;;;4786445;29;20047;-73
2021/04/12 09:55:39;;;;;;;2.08;0.52;;;18.20;58.60;;;;;;4761199;29;20561;-73
2021/04/12 09:58:25;;;;;;;4.45;1.10;;;18.60;58.20;;;;;;4794252;29;20043;-74
2021/04/12 10:01:19;;;;;;;2.45;0.70;;;18.70;57.40;;;;;;4784075;29;20147;-73
2021/04/12 10:03:57;;;;;;;3.22;0.93;;;18.80;57.60;;;;;;4784723;29;20054;-73
2021/04/12 10:06:39;;;;;;;5.97;0.88;;;19.10;58.00;;;;;;4764917;29;20066;-73
2021/04/12 10:09:43;;;;;;;2.23;0.80;;;19.20;58.10;;;;;;4782279;29;20079;-73
2021/04/12 10:12:12;;;;;;;3.53;0.93;;;19.30;57.10;;;;;;4768474;29;20058;-73
2021/04/12 10:15:01;;;;;;;4.18;1.23;;;19.40;57.70;;;;;;4796347;29;20585;-73
2021/04/12 10:17:50;;;;;;;2.63;0.75;;;19.80;56.80;;;;;;4783630;29;20055;-74
2021/04/12 10:20:49;;;;;;;1.77;0.25;;;19.80;56.60;;;;;;4780717;29;20061;-73
2021/04/12 10:23:27;;;;;;;2.67;0.70;;;19.80;56.90;;;;;;4776211;29;20051;-73
2021/04/12 10:26:13;;;;;;;2.60;0.35;;;19.90;56.60;;;;;;4766227;29;20514;-73
2021/04/12 10:29:10;;;;;;;4.28;0.82;;;20.00;56.10;;;;;;4801031;29;20061;-73
2021/04/12 10:31:48;;;;;;;6.90;1.33;;;20.20;56.40;;;;;;4731370;30;20079;-74
2021/04/12 10:34:30;;;;;;;11.23;3.13;;;20.40;55.50;;;;;;4758358;30;20141;-73
2021/04/12 10:37:13;;;;;;;2.67;0.80;;;20.60;55.70;;;;;;4745421;30;20733;-73
2021/04/12 10:40:17;;;;;;;6.00;0.50;;;20.80;54.70;;;;;;4742795;30;20044;-73
2021/04/12 10:42:49;;;;;;;5.40;0.57;;;21.00;54.10;;;;;;4742116;30;20060;-73
2021/04/12 10:45:25;;;;;;;2.88;0.63;;;20.90;54.30;;;;;;4724172;30;20077;-73
2021/04/12 10:48:00;;;;;;;5.28;0.50;;;20.90;54.70;;;;;;4735469;30;20060;-73
2021/04/12 10:50:33;;;;;;;4.03;0.40;;;20.90;54.90;;;;;;4746918;30;20054;-72
2021/04/12 10:53:32;;;;;;;1.77;0.65;;;20.80;54.60;;;;;;4744347;30;20830;-73
2021/04/12 10:56:05;;;;;;;4.35;0.52;;;20.90;54.00;;;;;;4756560;30;20583;-73
2021/04/12 10:58:43;;;;;;;;;;;20.80;53.80;;;;;;4745725;30;20052;-73
2021/04/12 11:01:14;;;;;;;3.53;0.47;;;20.70;54.20;;;;;;4734511;30;19933;-73
2021/04/12 11:04:04;;;;;;;7.30;0.60;;;21.10;54.80;;;;;;4725216;30;20101;-73
2021/04/12 11:06:57;;;;;;;5.90;0.55;;;21.20;53.60;;;;;;4745750;30;20062;-72
2021/04/12 11:09:48;;;;;;;3.85;1.00;;;21.50;53.30;;;;;;4766122;29;20520;-73
2021/04/12 11:12:46;;;;;;;3.63;0.68;;;21.50;52.60;;;;;;4764449;29;20055;-73
2021/04/12 11:15:34;;;;;;;3.72;0.60;;;21.60;52.80;;;;;;4767178;29;20066;-73
2021/04/12 11:18:33;;;;;;;6.07;0.70;;;22.00;52.20;;;;;;4775459;30;20071;-73
2021/04/12 11:21:12;;;;;;;2.92;0.50;;;22.30;51.10;;;;;;4728745;30;20543;-73
2021/04/12 11:23:47;;;;;;;4.35;0.60;;;22.60;50.80;;;;;;4729476;30;20056;-73
2021/04/12 11:26:27;;;;;;;4.00;0.70;;;22.60;50.80;;;;;;4725706;30;20067;-73
2021/04/12 11:29:10;;;;;;;6.93;0.60;;;22.80;49.70;;;;;;4729738;30;20072;-73
2021/04/12 11:31:49;;;;;;;2.55;0.47;;;22.60;49.70;;;;;;4727727;30;20083;-73
2021/04/12 11:34:24;;;;;;;2.47;0.40;;;22.50;50.10;;;;;;4719935;30;20060;-73
2021/04/12 11:37:17;;;;;;;3.70;0.50;;;22.60;50.30;;;;;;4714845;30;20871;-73
2021/04/12 11:40:01;;;;;;;4.03;0.55;;;22.70;50.60;;;;;;4719249;30;20051;-73
2021/04/12 11:42:36;;;;;;;1.98;0.50;;;22.50;50.00;;;;;;4726107;30;20526;-73
2021/04/12 11:45:15;;;;;;;2.05;0.43;;;22.30;50.10;;;;;;4711423;30;20057;-73
2021/04/12 11:48:14;;;;;;;3.00;0.60;;;22.30;50.50;;;;;;4730688;30;20064;-74
2021/04/12 11:51:05;;;;;;;5.22;1.20;;;22.40;49.90;;;;;;4725666;30;20086;-73
2021/04/12 11:53:43;;;;;;;3.17;0.60;;;22.30;49.90;;;;;;4729225;30;20040;-73
2021/04/12 11:56:24;;;;;;;1.85;0.40;;;22.60;50.70;;;;;;4712887;30;20142;-73
2021/04/12 11:58:56;;;;;;;3.35;0.40;;;23.10;49.60;;;;;;4759747;30;20466;-73
2021/04/12 12:01:55;;;;;;;6.18;1.13;;;23.40;48.30;;;;;;4768640;30;20054;-73
2021/04/12 12:04:49;;;;;;;2.45;0.40;;;23.80;47.90;;;;;;4767040;29;20043;-73
2021/04/12 12:07:52;;;;;;;2.65;0.45;;;23.70;47.40;;;;;;4769079;30;20058;-73
2021/04/12 12:10:41;;;;;;;3.30;0.40;;;23.10;48.10;;;;;;4762782;30;20056;-73
2021/04/12 12:13:29;;;;;;;2.38;0.73;;;22.90;48.90;;;;;;4775093;29;20539;-73
2021/04/12 12:16:08;;;;;;;2.80;0.50;;;22.80;49.20;;;;;;4780068;29;20498;-73
2021/04/12 12:19:03;;;;;;;2.83;0.80;;;22.70;49.20;;;;;;4768591;29;20062;-74
2021/04/12 12:21:34;;;;;;;2.22;0.38;;;22.60;49.50;;;;;;4724046;30;20109;-73
2021/04/12 12:24:11;;;;;;;1.83;0.30;;;22.70;49.70;;;;;;4713604;30;20072;-73
2021/04/12 12:27:00;;;;;;;4.88;0.55;;;22.80;49.20;;;;;;4700003;30;20085;-73
2021/04/12 12:29:29;;;;;;;3.58;0.90;;;23.10;48.60;;;;;;4708017;30;20430;-73
2021/04/12 12:32:17;;;;;;;2.17;0.30;;;23.20;48.10;;;;;;4724415;30;20172;-73
2021/04/12 12:34:55;;;;;;;4.95;0.65;;;23.40;47.30;;;;;;4724591;30;20057;-73
2021/04/12 12:37:43;;;;;;;1.75;0.70;;;23.30;47.00;;;;;;4711442;30;20044;-73
2021/04/12 12:40:25;;;;;;;4.20;0.52;;;23.10;47.20;;;;;;4716528;30;20059;-73
2021/04/12 12:43:07;;;;;;;2.33;0.60;;;22.80;47.90;;;;;;4693999;30;20067;-72
2021/04/12 12:45:38;;;;;;;9.15;1.05;;;22.40;47.60;;;;;;4713876;30;20055;-73
2021/04/12 12:48:28;;;;;;;3.10;0.30;;;22.20;48.30;;;;;;4735260;30;20096;-73
2021/04/12 12:51:12;;;;;;;2.45;0.63;;;22.00;47.80;;;;;;4745708;30;20118;-72
2021/04/12 12:53:42;;;;;;;1.77;0.60;;;21.90;48.10;;;;;;4722346;30;20594;-74
2021/04/12 12:56:11;;;;;;;2.20;0.30;;;21.90;48.60;;;;;;4725491;30;20052;-73
2021/04/12 12:58:51;;;;;;;3.67;0.45;;;21.90;47.60;;;;;;4744303;29;20048;-73
2021/04/12 13:01:26;;;;;;;4.32;0.35;;;22.00;48.00;;;;;;4777635;29;20138;-72
2021/04/12 13:03:53;;;;;;;2.30;0.40;;;22.10;47.60;;;;;;4780344;29;20050;-73
2021/04/12 13:06:29;;;;;;;2.88;0.80;;;22.20;47.70;;;;;;4768624;29;20137;-72
2021/04/12 13:09:01;;;;;;;4.32;0.38;;;22.30;47.70;;;;;;4765328;30;20056;-73
2021/04/12 13:11:49;;;;;;;3.58;0.80;;;22.20;46.80;;;;;;4764923;29;20055;-73
2021/04/12 13:14:27;;;;;;;3.38;0.80;;;22.20;47.50;;;;;;4777400;29;20052;-73
2021/04/12 13:16:59;;;;;;;2.70;0.40;;;22.00;47.10;;;;;;4764295;29;20043;-73
2021/04/12 13:19:42;;;;;;;7.07;0.95;;;21.60;48.40;;;;;;4759835;30;20047;-74
2021/04/12 13:22:09;;;;;;;4.63;0.75;;;21.50;48.60;;;;;;4764226;29;20625;-73
2021/04/12 13:24:37;;;;;;;4.13;0.70;;;21.40;49.10;;;;;;4772139;29;20040;-73
2021/04/12 13:27:25;;;;;;;7.30;1.25;;;21.30;49.80;;;;;;4773443;30;20396;-73
2021/04/12 13:30:01;;;;;;;3.53;0.70;;;21.20;49.50;;;;;;4763267;29;20055;-73
2021/04/12 13:32:33;;;;;;;3.60;0.93;;;21.10;49.80;;;;;;4764959;30;20062;-73
2021/04/12 13:35:15;;;;;;;3.90;1.13;;;21.00;49.50;;;;;;4782341;29;20052;-73
2021/04/12 13:37:57;;;;;;;6.40;0.95;;;20.90;49.50;;;;;;4766491;30;20392;-73
2021/04/12 13:40:31;;;;;;;3.15;1.00;;;20.80;49.80;;;;;;4779752;29;20047;-73
2021/04/12 13:43:06;;;;;;;6.85;0.80;;;20.70;50.00;;;;;;4766933;30;20050;-75
2021/04/12 13:45:34;;;;;;;11.32;1.10;;;20.60;49.60;;;;;;4764255;29;20059;-73
2021/04/12 13:48:23;;;;;;;4.25;0.98;;;20.50;49.50;;;;;;4778002;29;20047;-72
2021/04/12 13:51:12;;;;;;;4.13;1.17;;;20.30;49.70;;;;;;4765960;29;20040;-72
2021/04/12 13:53:53;;;;;;;3.17;0.70;;;20.20;49.30;;;;;;4787373;29;20116;-72
2021/04/12 13:56:28;;;;;;;5.78;0.90;;;20.10;49.30;;;;;;4779948;29;20059;-72
2021/04/12 13:59:07;;;;;;;7.63;0.70;;;20.00;49.80;;;;;;4803365;29;20042;-72
2021/04/12 14:02:02;;;;;;;4.40;0.63;;;19.90;49.80;;;;;;4804063;29;20550;-73
2021/04/12 14:04:59;;;;;;;2.55;0.80;;;19.90;50.40;;;;;;4779123;29;20054;-73
2021/04/12 14:07:38;;;;;;;6.70;0.90;;;19.80;50.40;;;;;;4781586;29;20055;-73
2021/04/12 14:10:14;;;;;;;10.23;1.23;;;19.80;50.50;;;;;;4782074;29;20436;-72
2021/04/12 14:13:18;;;;;;;3.58;0.73;;;19.70;50.10;;;;;;4779514;29;20062;-73
2021/04/12 14:15:57;;;;;;;4.82;1.13;;;19.70;50.80;;;;;;4780801;29;20061;-73
2021/04/12 14:18:30;;;;;;;4.35;0.60;;;19.60;51.30;;;;;;4765985;29;20094;-74
2021/04/12 14:21:18;;;;;;;5.43;0.70;;;19.50;51.30;;;;;;4788762;29;20056;-74
2021/04/12 14:24:23;;;;;;;3.95;0.75;;;19.40;51.50;;;;;;4789963;29;20519;-73
2021/04/12 14:27:02;;;;;;;6.55;1.25;;;19.40;51.40;;;;;;4792895;29;20047;-73
2021/04/12 14:29:46;;;;;;;4.60;0.60;;;19.30;51.80;;;;;;4782366;29;20051;-73
2021/04/12 14:32:19;;;;;;;5.10;1.35;;;19.30;52.00;;;;;;4781979;29;20082;-72
2021/04/12 14:35:04;;;;;;;3.75;0.93;;;19.20;51.80;;;;;;4775321;29;20535;-73
2021/04/12 14:37:34;;;;;;;6.68;1.27;;;19.20;52.20;;;;;;4785346;29;20039;-72